Time;durP1;ratioP1;P1;durP2;ratioP2;P2;SDS_P1;SDS_P2;PMS_P1;PMS_P2;Temp;Humidity;BMP_temperature;BMP_pressure;BME280_temperature;BME280_humidity;BME280_pressure;Samples;Min_cycle;Max_cycle;Signal;HPM_P1;HPM_P2
2022/12/31 00:01:09;;;;;;;7.25;2.45;;;;;;;12.66;100.00;100291.59;4988417;28;20026;-67
2022/12/31 00:03:34;;;;;;;10.52;1.80;;;;;;;12.68;100.00;100287.97;4982738;28;20036;-66
2022/12/31 00:05:59;;;;;;;5.60;2.13;;;;;;;12.63;100.00;100279.41;4970615;28;20031;-65
2022/12/31 00:08:25;;;;;;;4.55;1.70;;;;;;;12.60;100.00;100283.06;4987994;28;20080;-65
2022/12/31 00:10:50;;;;;;;9.40;1.60;;;;;;;12.69;100.00;100281.72;4987565;28;20056;-66
2022/12/31 00:13:16;;;;;;;10.85;1.80;;;;;;;12.58;100.00;100279.63;4971945;28;20022;-67
2022/12/31 00:15:42;;;;;;;4.93;1.45;;;;;;;12.58;100.00;100276.97;4987514;28;20105;-67
2022/12/31 00:18:08;;;;;;;9.27;1.58;;;;;;;12.56;100.00;100281.50;4971245;28;20034;-66
2022/12/31 00:20:37;;;;;;;5.97;1.48;;;;;;;12.58;100.00;100287.56;4988658;28;20366;-66
2022/12/31 00:23:03;;;;;;;3.50;1.23;;;;;;;12.56;100.00;100293.88;4988441;28;20034;-67
2022/12/31 00:25:28;;;;;;;8.90;1.60;;;;;;;12.53;100.00;100294.88;4988588;28;20373;-67
2022/12/31 00:27:54;;;;;;;5.95;1.98;;;;;;;12.60;100.00;100300.69;4988406;28;20033;-65
2022/12/31 00:30:19;;;;;;;10.18;1.67;;;;;;;12.47;100.00;100298.69;4988467;28;20395;-67
2022/12/31 00:32:45;;;;;;;6.18;1.60;;;;;;;12.51;100.00;100307.31;4986046;28;20032;-67
2022/12/31 00:35:10;;;;;;;8.43;1.90;;;;;;;12.48;100.00;100297.75;4981231;28;20653;-67
2022/12/31 00:37:35;;;;;;;9.93;1.50;;;;;;;12.46;100.00;100304.06;4987978;28;20822;-67
2022/12/31 00:40:01;;;;;;;5.68;1.45;;;;;;;12.53;100.00;100294.88;4986695;28;20767;-65
2022/12/31 00:42:26;;;;;;;11.52;1.73;;;;;;;12.49;100.00;100298.59;4970962;28;20054;-66
2022/12/31 00:44:51;;;;;;;6.85;1.83;;;;;;;12.46;100.00;100296.13;4983635;28;20376;-65
2022/12/31 00:47:17;;;;;;;12.80;1.88;;;;;;;12.33;100.00;100304.66;4992201;28;20054;-66
2022/12/31 00:49:42;;;;;;;10.10;1.65;;;;;;;12.41;100.00;100292.84;4991604;28;20376;-66
2022/12/31 00:52:07;;;;;;;12.48;2.08;;;;;;;12.37;100.00;100289.50;4991476;28;20509;-66
2022/12/31 00:54:33;;;;;;;8.15;2.00;;;;;;;12.40;100.00;100277.94;4975131;28;20489;-66
2022/12/31 00:56:58;;;;;;;11.13;1.88;;;;;;;12.43;100.00;100280.44;4974711;28;20029;-66
2022/12/31 00:59:24;;;;;;;16.75;2.22;;;;;;;12.33;100.00;100286.16;4991355;28;20042;-67
2022/12/31 01:01:49;;;;;;;16.17;2.25;;;;;;;12.37;100.00;100287.72;4992748;28;20026;-66
2022/12/31 01:04:19;;;;;;;10.57;1.90;;;;;;;12.36;100.00;100282.50;4982967;28;20382;-65
2022/12/31 01:06:44;;;;;;;8.95;2.35;;;;;;;12.31;100.00;100282.75;4994285;28;20392;-67
2022/12/31 01:09:11;;;;;;;11.88;1.55;;;;;;;12.37;100.00;100279.78;5010551;28;20025;-66
2022/12/31 01:11:37;;;;;;;7.07;1.80;;;;;;;12.35;100.00;100279.03;5011148;28;20042;-67
2022/12/31 01:14:07;;;;;;;10.73;1.70;;;;;;;12.35;100.00;100284.31;5010766;28;20037;-66
2022/12/31 01:16:36;;;;;;;13.15;1.52;;;;;;;12.36;100.00;100272.81;5011555;28;20056;-68
2022/12/31 01:19:04;;;;;;;8.18;1.75;;;;;;;12.43;100.00;100267.22;5011072;28;20038;-68
2022/12/31 01:21:30;;;;;;;7.63;1.60;;;;;;;12.36;100.00;100272.81;4993824;28;20030;-67
2022/12/31 01:23:57;;;;;;;4.35;1.20;;;;;;;12.32;100.00;100283.59;5010973;28;20672;-66
2022/12/31 01:26:22;;;;;;;8.73;1.75;;;;;;;12.28;100.00;100279.41;5011472;28;20484;-66
2022/12/31 01:28:47;;;;;;;5.47;1.42;;;;;;;12.34;100.00;100269.38;5010821;28;20068;-66
2022/12/31 01:31:15;;;;;;;8.60;1.70;;;;;;;12.33;100.00;100278.25;5011380;28;20025;-65
2022/12/31 01:33:41;;;;;;;9.20;2.05;;;;;;;12.36;100.00;100286.03;4984381;28;20045;-66
2022/12/31 01:36:16;;;;;;;8.18;1.98;;;;;;;12.34;100.00;100285.22;4973684;28;20378;-66
2022/12/31 01:38:42;;;;;;;6.03;1.80;;;;;;;12.28;100.00;100268.84;4990917;28;20124;-67
2022/12/31 01:41:12;;;;;;;4.55;1.75;;;;;;;12.25;100.00;100288.31;4991259;28;20433;-66
2022/12/31 01:43:45;;;;;;;8.75;1.60;;;;;;;12.26;100.00;100285.59;4990940;28;20026;-67
2022/12/31 01:46:16;;;;;;;4.95;1.33;;;;;;;12.18;100.00;100284.28;4991316;28;20559;-67
2022/12/31 01:48:42;;;;;;;10.05;1.63;;;;;;;12.23;100.00;100285.78;4974193;28;20042;-65
2022/12/31 01:51:08;;;;;;;8.40;1.60;;;;;;;12.11;100.00;100274.03;4973782;28;20086;-66
2022/12/31 01:53:33;;;;;;;2.90;1.23;;;;;;;12.16;100.00;100276.44;4991390;28;20089;-66
2022/12/31 01:55:59;;;;;;;9.00;1.50;;;;;;;12.10;100.00;100268.84;4991742;28;20370;-66
2022/12/31 01:58:38;;;;;;;5.30;1.45;;;;;;;12.06;100.00;100265.44;4973167;28;20512;-66
2022/12/31 02:01:05;;;;;;;7.00;1.25;;;;;;;12.07;100.00;100251.34;4970685;28;20483;-67
2022/12/31 02:03:31;;;;;;;4.45;1.40;;;;;;;12.00;100.00;100250.78;4969502;28;20028;-66
2022/12/31 02:06:11;;;;;;;3.38;1.10;;;;;;;12.07;100.00;100261.91;4990517;28;20121;-65
2022/12/31 02:08:36;;;;;;;4.88;1.23;;;;;;;12.08;100.00;100252.22;4973107;28;20093;-67
2022/12/31 02:11:28;;;;;;;4.78;1.17;;;;;;;12.00;100.00;100253.41;4973418;28;20030;-68
2022/12/31 02:13:56;;;;;;;5.88;1.17;;;;;;;11.98;100.00;100283.47;4990132;28;20103;-67
2022/12/31 02:16:30;;;;;;;5.97;1.50;;;;;;;12.02;100.00;100290.31;4990997;28;20515;-68
2022/12/31 02:19:00;;;;;;;5.22;1.33;;;;;;;12.03;100.00;100281.44;4990385;28;20034;-67
2022/12/31 02:21:33;;;;;;;6.10;1.30;;;;;;;11.99;100.00;100278.13;4990548;28;20030;-67
2022/12/31 02:24:26;;;;;;;12.38;1.67;;;;;;;11.93;100.00;100296.03;4985418;28;20040;-67
2022/12/31 02:27:25;;;;;;;11.10;1.70;;;;;;;11.92;100.00;100299.59;4953782;28;20045;-66
2022/12/31 02:30:07;;;;;;;;;;;;;;;12.00;100.00;100306.22;4969719;28;20039;-66
2022/12/31 02:32:39;;;;;;;6.38;1.30;;;;;;;12.04;100.00;100300.78;4969764;28;19965;-67
2022/12/31 02:35:26;;;;;;;7.78;1.67;;;;;;;12.04;100.00;100300.78;4969673;28;20437;-67
2022/12/31 02:37:53;;;;;;;5.25;1.40;;;;;;;12.00;100.00;100300.06;4953897;28;20022;-69
2022/12/31 02:40:20;;;;;;;12.48;1.52;;;;;;;11.94;100.00;100289.81;4972121;28;20030;-70
2022/12/31 02:42:46;;;;;;;8.23;1.85;;;;;;;11.98;100.00;100286.94;4972168;28;20091;-68
2022/12/31 02:45:13;;;;;;;5.65;1.45;;;;;;;11.95;100.00;100283.63;4970446;28;20440;-70
2022/12/31 02:47:57;;;;;;;8.18;1.67;;;;;;;11.92;100.00;100289.88;4971404;28;20086;-68
2022/12/31 02:50:36;;;;;;;5.03;1.50;;;;;;;11.91;100.00;100298.75;4971551;28;20037;-67
2022/12/31 02:53:21;;;;;;;7.93;1.70;;;;;;;11.98;100.00;100312.50;4977790;28;20026;-69
2022/12/31 02:55:57;;;;;;;7.82;1.52;;;;;;;11.91;100.00;100319.00;4991244;28;20026;-67
2022/12/31 03:04:33;;;;;;;6.82;1.63;;;;;;;11.73;100.00;100308.38;4994591;28;20045;-69
2022/12/31 03:07:07;;;;;;;6.65;1.98;;;;;;;11.65;100.00;100318.47;4994247;28;20080;-67
2022/12/31 03:09:33;;;;;;;10.30;1.65;;;;;;;11.59;100.00;100325.72;5009722;28;20033;-67
2022/12/31 03:12:59;;;;;;;11.05;1.83;;;;;;;11.69;100.00;100314.75;5009217;28;20041;-67
2022/12/31 03:14:54;;;;;;;7.53;1.92;;;;;;;11.75;100.00;100330.28;4968821;28;20509;-69
2022/12/31 03:17:19;;;;;;;10.45;1.70;;;;;;;11.59;100.00;100317.81;4989818;28;20032;-67
2022/12/31 03:22:29;;;;;;;11.88;1.80;;;;;;;11.53;100.00;100327.81;4989340;28;20045;-67
2022/12/31 03:27:41;;;;;;;9.23;1.20;;;;;;;11.59;100.00;100309.88;4989551;28;20096;-66
2022/12/31 03:30:07;;;;;;;10.13;1.63;;;;;;;11.48;100.00;100296.34;4988645;28;20029;-67
2022/12/31 03:32:32;;;;;;;6.32;1.98;;;;;;;11.49;100.00;100303.34;4989598;28;20110;-65
2022/12/31 03:34:58;;;;;;;5.50;1.15;;;;;;;11.42;100.00;100291.34;4979291;28;20027;-66
2022/12/31 03:37:23;;;;;;;10.40;1.73;;;;;;;11.44;100.00;100282.44;4989174;28;20054;-66
2022/12/31 03:39:48;;;;;;;6.30;1.52;;;;;;;11.48;100.00;100277.88;4987942;28;20030;-67
2022/12/31 03:42:14;;;;;;;6.28;1.20;;;;;;;11.41;100.00;100285.22;4988651;28;20065;-66
2022/12/31 03:44:39;;;;;;;4.28;1.20;;;;;;;11.35;100.00;100275.81;4988323;28;20037;-66
2022/12/31 03:47:04;;;;;;;8.40;1.40;;;;;;;11.38;100.00;100278.31;4989265;28;20037;-67
2022/12/31 03:49:30;;;;;;;7.88;1.25;;;;;;;11.41;100.00;100272.03;4989343;28;20097;-66
2022/12/31 03:51:55;;;;;;;6.57;1.33;;;;;;;11.35;100.00;100262.63;4988603;28;20057;-66
2022/12/31 03:54:20;;;;;;;8.95;1.42;;;;;;;11.32;100.00;100262.75;4989203;28;20722;-66
2022/12/31 03:56:46;;;;;;;5.00;1.00;;;;;;;11.28;100.00;100266.47;4979753;28;20027;-66
2022/12/31 03:59:11;;;;;;;7.97;1.33;;;;;;;11.31;100.00;100276.88;4987688;28;20030;-66
2022/12/31 04:01:36;;;;;;;9.98;1.50;;;;;;;11.25;100.00;100279.78;4987682;28;20022;-66
2022/12/31 04:04:02;;;;;;;10.93;1.60;;;;;;;11.32;100.00;100286.50;4987793;28;20022;-66
2022/12/31 04:06:27;;;;;;;4.28;1.50;;;;;;;11.31;100.00;100284.78;4988663;28;20414;-66
2022/12/31 04:08:52;;;;;;;7.07;1.73;;;;;;;11.31;100.00;100287.44;4988180;28;20488;-66
2022/12/31 04:11:18;;;;;;;8.02;2.10;;;;;;;11.31;100.00;100276.88;4989088;28;20050;-66
2022/12/31 04:13:43;;;;;;;7.10;2.10;;;;;;;11.28;100.00;100279.66;4988003;28;20046;-65
2022/12/31 04:16:09;;;;;;;7.22;2.10;;;;;;;11.23;100.00;100277.22;4988165;28;20018;-68
2022/12/31 04:18:34;;;;;;;6.60;2.03;;;;;;;11.29;100.00;100284.00;4970953;28;20038;-67
2022/12/31 04:21:03;;;;;;;7.10;2.00;;;;;;;11.30;100.00;100283.09;4988534;28;20676;-67
2022/12/31 04:23:29;;;;;;;4.85;1.60;;;;;;;11.29;100.00;100286.63;4985176;28;20092;-66
2022/12/31 04:25:54;;;;;;;3.88;1.75;;;;;;;11.26;100.00;100297.34;4987912;28;20129;-66
2022/12/31 04:28:19;;;;;;;5.18;1.38;;;;;;;11.26;100.00;100273.63;4970170;28;20022;-66
2022/12/31 04:30:45;;;;;;;11.23;1.60;;;;;;;11.26;100.00;100278.91;4988939;28;20031;-66
2022/12/31 04:33:10;;;;;;;5.97;1.35;;;;;;;11.30;100.00;100285.72;4988490;28;20445;-66
2022/12/31 04:35:35;;;;;;;5.72;1.40;;;;;;;11.33;100.00;100282.97;4971107;28;20361;-66
2022/12/31 04:38:01;;;;;;;9.25;1.30;;;;;;;11.27;100.00;100272.69;4988499;28;20030;-66
2022/12/31 04:40:26;;;;;;;6.30;1.50;;;;;;;11.32;100.00;100275.94;4988959;28;20030;-67
2022/12/31 04:42:51;;;;;;;4.88;1.52;;;;;;;11.34;100.00;100271.47;4988406;28;20034;-67
2022/12/31 04:45:17;;;;;;;4.03;1.48;;;;;;;11.28;100.00;100273.50;4980822;28;20057;-67
2022/12/31 04:47:42;;;;;;;4.70;1.60;;;;;;;11.28;100.00;100284.94;4988412;28;20474;-66
2022/12/31 04:50:08;;;;;;;4.43;1.73;;;;;;;11.27;100.00;100277.09;4987156;28;20497;-67
2022/12/31 04:52:33;;;;;;;3.08;1.77;;;;;;;11.25;100.00;100285.94;4988791;28;20440;-67
2022/12/31 04:54:58;;;;;;;4.82;2.03;;;;;;;11.31;100.00;100276.88;4988401;28;20593;-67
2022/12/31 04:57:24;;;;;;;4.40;2.08;;;;;;;11.27;100.00;100280.59;4988539;28;20089;-66
2022/12/31 04:59:49;;;;;;;3.92;2.28;;;;;;;11.29;100.00;100280.53;4988141;28;20054;-66
2022/12/31 05:02:14;;;;;;;4.25;2.63;;;;;;;11.27;100.00;100279.72;4988212;28;20116;-67
2022/12/31 05:04:39;;;;;;;4.30;2.50;;;;;;;11.31;100.00;100268.09;4983347;28;20029;-67
2022/12/31 05:07:05;;;;;;;5.00;2.45;;;;;;;11.34;100.00;100276.75;4984192;28;20085;-66
2022/12/31 05:09:30;;;;;;;3.83;3.15;;;;;;;11.36;100.00;100282.81;4987884;28;20027;-66
2022/12/31 05:11:55;;;;;;;5.38;3.55;;;;;;;11.34;100.00;100284.66;4987688;28;20130;-66
2022/12/31 05:14:21;;;;;;;4.93;2.90;;;;;;;11.40;100.00;100286.16;4987795;28;20026;-67
2022/12/31 05:16:46;;;;;;;4.72;2.85;;;;;;;11.42;100.00;100276.41;4989265;28;20034;-66
2022/12/31 05:19:12;;;;;;;3.97;2.42;;;;;;;11.44;100.00;100276.31;4988227;28;20456;-66
2022/12/31 05:21:37;;;;;;;6.15;2.90;;;;;;;11.48;100.00;100270.84;4988264;28;20027;-66
2022/12/31 05:24:03;;;;;;;3.28;2.90;;;;;;;11.47;100.00;100284.09;4984889;28;20035;-66
2022/12/31 05:26:28;;;;;;;2.47;2.20;;;;;;;11.48;100.00;100291.06;4982341;28;20532;-66
2022/12/31 05:28:55;;;;;;;2.22;2.03;;;;;;;11.59;100.00;100278.22;4986881;28;20026;-67
2022/12/31 05:31:21;;;;;;;3.53;1.90;;;;;;;11.58;100.00;100265.09;4992209;28;20026;-67
2022/12/31 05:33:46;;;;;;;2.60;2.00;;;;;;;11.65;100.00;100271.78;4991832;28;20512;-66
2022/12/31 05:36:11;;;;;;;2.33;2.08;;;;;;;11.70;100.00;100258.38;4986088;28;20477;-66
2022/12/31 05:38:37;;;;;;;2.88;2.03;;;;;;;11.69;100.00;100275.16;4991486;28;20113;-66
2022/12/31 05:41:04;;;;;;;3.75;1.95;;;;;;;11.78;100.00;100265.94;4998897;28;20092;-65
2022/12/31 05:43:30;;;;;;;2.80;2.50;;;;;;;11.81;100.00;100269.31;4993634;28;20131;-66
2022/12/31 05:45:55;;;;;;;2.50;2.30;;;;;;;11.86;100.00;100263.81;4998330;28;20026;-65
2022/12/31 05:48:21;;;;;;;2.00;1.90;;;;;;;11.87;100.00;100261.06;4993437;28;20019;-67
2022/12/31 05:50:47;;;;;;;2.20;2.00;;;;;;;11.96;100.00;100265.06;4993480;28;20046;-66
2022/12/31 05:53:13;;;;;;;1.70;1.60;;;;;;;11.99;100.00;100258.78;4996632;28;20109;-65
2022/12/31 05:55:38;;;;;;;1.60;1.50;;;;;;;11.99;100.00;100274.59;4997001;28;20150;-66
2022/12/31 05:58:03;;;;;;;2.35;1.30;;;;;;;12.07;100.00;100271.63;5001516;28;20057;-65
2022/12/31 06:00:29;;;;;;;1.15;1.08;;;;;;;12.13;100.00;100271.28;4998392;28;20046;-68
2022/12/31 06:02:54;;;;;;;0.85;0.85;;;;;;;12.17;100.00;100282.56;4998325;28;20109;-66
2022/12/31 06:05:19;;;;;;;1.90;0.80;;;;;;;12.16;100.00;100276.44;4992003;28;20114;-67
2022/12/31 06:07:45;;;;;;;0.77;0.77;;;;;;;12.25;100.00;100288.31;4985184;28;20109;-67
2022/12/31 06:10:10;;;;;;;0.57;0.57;;;;;;;12.31;100.00;100282.75;4992188;28;20168;-68
2022/12/31 06:12:35;;;;;;;1.33;0.75;;;;;;;12.37;100.00;100284.22;5001570;28;20038;-66
2022/12/31 06:15:01;;;;;;;1.00;1.00;;;;;;;12.44;100.00;100283.00;4999775;28;20124;-66
2022/12/31 06:17:28;;;;;;;1.00;1.00;;;;;;;12.46;100.00;100293.50;4994177;28;20528;-67
2022/12/31 06:19:53;;;;;;;1.00;1.00;;;;;;;12.52;100.00;100293.16;5002119;28;20030;-68
2022/12/31 06:22:18;;;;;;;1.88;1.10;;;;;;;12.64;100.00;100302.25;4997540;28;20420;-68
2022/12/31 06:24:44;;;;;;;1.38;1.35;;;;;;;12.72;100.00;100286.84;4985989;28;20032;-68
2022/12/31 06:27:09;;;;;;;1.50;1.40;;;;;;;12.73;100.00;100291.19;4990084;28;20027;-68
2022/12/31 06:29:34;;;;;;;1.85;1.70;;;;;;;12.83;100.00;100296.88;4993836;28;20524;-68
2022/12/31 06:32:00;;;;;;;1.52;1.42;;;;;;;12.83;100.00;100299.53;4994212;28;20026;-68
2022/12/31 06:34:25;;;;;;;2.58;1.92;;;;;;;12.85;100.00;100292.34;4990372;28;20356;-67
2022/12/31 06:36:50;;;;;;;1.70;1.60;;;;;;;12.88;100.00;100300.13;4995829;28;20380;-67
2022/12/31 06:39:16;;;;;;;1.80;1.70;;;;;;;12.91;100.00;100287.69;5010877;28;20111;-67
2022/12/31 06:41:41;;;;;;;5.43;1.90;;;;;;;13.00;100.00;100287.19;5009604;28;20034;-65
2022/12/31 06:44:06;;;;;;;1.67;1.58;;;;;;;12.96;100.00;100290.94;5009698;28;20033;-67
2022/12/31 06:46:32;;;;;;;1.90;1.80;;;;;;;13.05;100.00;100284.28;5010203;28;20030;-67
2022/12/31 06:48:57;;;;;;;1.60;1.50;;;;;;;13.09;100.00;100296.41;5010115;28;20030;-67
2022/12/31 06:51:22;;;;;;;1.63;1.30;;;;;;;13.16;100.00;100292.53;5005459;28;20019;-68
2022/12/31 06:53:49;;;;;;;1.45;1.20;;;;;;;13.18;100.00;100287.16;4992695;28;20120;-67
2022/12/31 06:56:24;;;;;;;1.27;1.17;;;;;;;13.13;100.00;100280.28;5009846;28;20057;-68
2022/12/31 06:58:50;;;;;;;1.35;0.90;;;;;;;13.21;100.00;100286.97;5001607;28;20447;-68
2022/12/31 07:01:29;;;;;;;0.80;0.80;;;;;;;13.24;100.00;100300.03;4990258;28;20034;-68
2022/12/31 07:04:04;;;;;;;1.90;0.70;;;;;;;13.21;100.00;100305.47;4970825;28;20076;-69
2022/12/31 07:06:52;;;;;;;0.63;0.63;;;;;;;13.33;100.00;100306.66;4988128;28;20049;-68
2022/12/31 07:09:45;;;;;;;1.30;0.80;;;;;;;13.33;100.00;100310.13;4978491;28;20093;-69
2022/12/31 07:12:39;;;;;;;1.88;0.70;;;;;;;13.30;100.00;100323.50;4989164;28;20145;-68
2022/12/31 07:15:13;;;;;;;0.90;0.70;;;;;;;13.36;100.00;100320.53;4967419;28;20034;-69
2022/12/31 07:18:09;;;;;;;2.85;0.77;;;;;;;13.41;100.00;100309.72;4986808;28;20030;-68
2022/12/31 07:20:35;;;;;;;1.13;0.80;;;;;;;13.38;100.00;100310.75;4988946;28;20026;-67
2022/12/31 07:23:00;;;;;;;1.30;0.75;;;;;;;13.44;100.00;100316.63;4988692;28;20028;-68
2022/12/31 07:25:26;;;;;;;2.05;0.77;;;;;;;13.47;100.00;100308.53;4989138;28;20027;-68
2022/12/31 07:27:58;;;;;;;1.38;0.70;;;;;;;13.50;100.00;100301.31;4980023;28;20049;-67
2022/12/31 07:30:49;;;;;;;1.23;0.75;;;;;;;13.54;100.00;100327.59;4969890;28;20089;-67
2022/12/31 07:33:58;;;;;;;4.32;1.05;;;;;;;13.63;100.00;100324.44;4969030;28;20026;-68
2022/12/31 07:36:45;;;;;;;1.00;0.55;;;;;;;13.60;100.00;100335.19;4928443;29;20045;-67
2022/12/31 07:39:21;;;;;;;1.73;0.63;;;;;;;13.63;100.00;100327.09;4924781;29;20131;-65
2022/12/31 07:41:52;;;;;;;2.28;0.70;;;;;;;13.51;100.00;100332.13;4966821;28;20069;-65
2022/12/31 07:44:42;;;;;;;1.73;0.90;;;;;;;13.59;100.00;100307.88;4988159;28;20109;-66
2022/12/31 07:47:19;;;;;;;3.00;0.85;;;;;;;13.54;100.00;100317.84;4988254;28;20511;-69
2022/12/31 07:49:45;;;;;;;3.13;0.80;;;;;;;13.54;100.00;100323.16;4971137;28;20077;-66
2022/12/31 07:52:11;;;;;;;2.35;0.65;;;;;;;13.54;100.00;100323.16;4987767;28;20038;-68
2022/12/31 07:54:36;;;;;;;2.20;0.60;;;;;;;13.58;100.00;100322.03;4973687;28;20049;-68
2022/12/31 07:57:02;;;;;;;2.78;0.80;;;;;;;13.56;100.00;100341.59;4968620;28;20034;-65
2022/12/31 07:59:27;;;;;;;2.13;0.80;;;;;;;13.52;100.00;100325.03;4968129;28;20470;-68
2022/12/31 08:02:07;;;;;;;2.10;0.77;;;;;;;13.49;100.00;100335.75;4969241;28;20394;-65
2022/12/31 08:04:55;;;;;;;2.17;0.60;;;;;;;13.44;100.00;100338.66;4969057;28;20077;-64
2022/12/31 08:07:40;;;;;;;2.38;0.57;;;;;;;13.28;100.00;100338.63;4951055;28;20045;-65
2022/12/31 08:10:21;;;;;;;1.70;0.50;;;;;;;13.43;100.00;100357.25;4968006;28;20133;-66
2022/12/31 08:12:48;;;;;;;3.97;0.70;;;;;;;13.37;100.00;100358.47;4974960;28;20042;-66
2022/12/31 08:15:16;;;;;;;3.28;1.00;;;;;;;13.45;100.00;100371.28;4987242;28;20255;-66
2022/12/31 08:17:42;;;;;;;4.68;0.88;;;;;;;13.33;100.00;100363.03;4970556;28;20222;-68
2022/12/31 08:20:14;;;;;;;4.30;1.27;;;;;;;13.39;100.00;100383.88;4987363;28;20034;-67
2022/12/31 08:22:39;;;;;;;7.85;0.95;;;;;;;13.35;100.00;100386.78;4980004;28;20034;-66
2022/12/31 08:25:30;;;;;;;4.15;1.08;;;;;;;13.42;100.00;100388.16;4967753;28;20043;-67
2022/12/31 08:28:04;;;;;;;3.55;1.13;;;;;;;13.24;100.00;100389.97;4949821;28;20049;-65
2022/12/31 08:30:54;;;;;;;4.65;1.00;;;;;;;13.31;100.00;100385.22;4969010;28;20030;-65
2022/12/31 08:33:36;;;;;;;5.20;0.80;;;;;;;13.38;100.00;100408.66;4948614;28;20590;-67
2022/12/31 08:36:16;;;;;;;5.50;0.85;;;;;;;13.42;100.00;100390.81;4966737;28;20509;-69
2022/12/31 08:39:00;;;;;;;5.68;0.85;;;;;;;13.52;100.00;100405.28;4968672;28;20027;-66
2022/12/31 08:41:44;;;;;;;4.72;1.08;;;;;;;13.57;100.00;100405.03;4951319;28;20031;-67
2022/12/31 08:44:17;;;;;;;4.40;1.00;;;;;;;13.71;100.00;100424.63;4968250;28;20038;-68
2022/12/31 08:46:45;;;;;;;6.10;1.48;;;;;;;13.81;100.00;100420.53;4970284;28;20026;-66
2022/12/31 08:49:11;;;;;;;7.85;1.38;;;;;;;13.77;100.00;100425.16;4987643;28;20053;-69
2022/12/31 08:51:37;;;;;;;5.95;1.10;;;;;;;13.83;100.00;100428.41;4988113;28;20142;-68
2022/12/31 08:54:03;;;;;;;8.35;1.50;;;;;;;13.84;100.00;100443.34;4987633;28;20110;-68
2022/12/31 08:56:31;;;;;;;8.23;1.20;;;;;;;13.86;100.00;100447.66;4988161;28;20022;-66
2022/12/31 08:59:24;;;;;;;7.63;1.20;;;;;;;13.89;100.00;100446.63;4986787;28;20042;-68
2022/12/31 09:01:53;;;;;;;3.50;1.50;;;;;;;13.94;100.00;100464.91;4986174;28;20344;-68
2022/12/31 09:04:24;;;;;;;9.87;1.33;;;;;;;13.94;100.00;100441.91;4990710;28;20041;-68
2022/12/31 09:06:57;;;;;;;12.73;3.13;;;;;;;14.01;100.00;100434.50;4992755;28;20026;-67
2022/12/31 09:09:31;;;;;;;5.60;1.25;;;;;;;13.98;100.00;100434.66;5010608;28;20212;-69
2022/12/31 09:12:04;;;;;;;5.72;1.10;;;;;;;14.04;100.00;100436.97;5010927;28;20108;-67
2022/12/31 09:14:36;;;;;;;6.50;1.23;;;;;;;14.21;100.00;100436.03;5010892;28;20049;-66
2022/12/31 09:17:23;;;;;;;11.18;1.40;;;;;;;14.21;100.00;100443.97;5011460;28;20440;-68
2022/12/31 09:19:48;;;;;;;6.10;1.20;;;;;;;14.31;100.00;100451.41;4991845;28;20034;-68
2022/12/31 09:22:14;;;;;;;7.18;1.77;;;;;;;14.20;100.00;100436.97;4990985;28;20105;-69
2022/12/31 09:24:39;;;;;;;10.23;1.40;;;;;;;14.09;100.00;100444.69;4991194;28;20061;-69
2022/12/31 09:27:23;;;;;;;4.97;1.27;;;;;;;14.17;100.00;100453.03;4990721;28;20038;-69
2022/12/31 09:30:05;;;;;;;8.18;1.48;;;;;;;14.19;100.00;100455.59;4972762;28;20149;-68
2022/12/31 09:32:33;;;;;;;7.15;2.63;;;;;;;14.17;100.00;100441.59;4990325;28;20023;-68
2022/12/31 09:35:06;;;;;;;6.78;1.50;;;;;;;14.18;100.00;100453.91;4981821;28;20034;-68
2022/12/31 09:37:55;;;;;;;4.18;1.13;;;;;;;14.15;100.00;100470.84;4973804;28;20490;-68
2022/12/31 09:40:26;;;;;;;;;;;;;;;14.26;100.00;100472.88;4963724;28;20473;-67
2022/12/31 09:43:19;;;;;;;7.75;1.70;;;;;;;14.18;100.00;100483.06;4971106;28;19985;-69
2022/12/31 09:46:09;;;;;;;6.95;1.52;;;;;;;14.19;100.00;100450.31;4978251;28;20081;-68
2022/12/31 09:48:52;;;;;;;3.33;1.33;;;;;;;14.19;100.00;100479.44;4976440;28;20105;-70
2022/12/31 09:51:28;;;;;;;3.08;1.10;;;;;;;14.24;100.00;100465.00;4966902;28;20121;-70
2022/12/31 09:54:08;;;;;;;2.88;1.10;;;;;;;14.41;100.00;100476.47;4988219;28;20445;-68
2022/12/31 09:56:35;;;;;;;3.80;1.00;;;;;;;14.48;100.00;100469.88;4979096;28;20041;-69
2022/12/31 09:59:11;;;;;;;5.72;1.20;;;;;;;14.44;100.00;100481.59;4980159;28;20042;-68
2022/12/31 10:01:43;;;;;;;2.03;1.52;;;;;;;14.48;100.00;100484.94;4967755;28;20102;-69
2022/12/31 10:04:47;;;;;;;6.07;1.35;;;;;;;14.62;100.00;100492.09;4980526;28;20052;-71
2022/12/31 10:07:38;;;;;;;3.50;1.13;;;;;;;14.55;100.00;100490.75;4962915;28;20073;-70
2022/12/31 10:10:43;;;;;;;8.40;1.95;;;;;;;14.53;100.00;100491.69;4987204;28;20962;-69
2022/12/31 10:13:20;;;;;;;7.45;1.77;;;;;;;14.48;100.00;100525.53;4983024;28;20041;-69
2022/12/31 10:16:07;;;;;;;6.80;1.38;;;;;;;14.53;100.00;100493.47;4986326;28;20109;-68
2022/12/31 10:18:59;;;;;;;1.98;1.25;;;;;;;14.51;100.00;100503.31;4981261;28;20034;-71
2022/12/31 10:21:47;;;;;;;3.55;1.48;;;;;;;14.65;100.00;100499.88;4966377;28;20546;-70
2022/12/31 10:24:53;;;;;;;5.57;1.50;;;;;;;14.64;100.00;100491.09;4978209;28;20489;-68
2022/12/31 10:27:35;;;;;;;5.60;1.50;;;;;;;14.66;100.00;100493.66;4985111;28;20070;-67
2022/12/31 10:30:22;;;;;;;5.45;1.30;;;;;;;14.68;100.00;100520.06;4984184;28;20033;-69
2022/12/31 10:32:53;;;;;;;3.78;1.40;;;;;;;14.65;100.00;100516.66;4994471;28;20113;-71
2022/12/31 10:35:30;;;;;;;4.97;1.60;;;;;;;14.65;100.00;100499.88;5008178;28;20030;-70
2022/12/31 10:37:59;;;;;;;5.60;1.30;;;;;;;14.70;100.00;100518.19;4991349;28;20357;-70
2022/12/31 10:40:37;;;;;;;6.75;1.75;;;;;;;14.70;100.00;100510.22;5009922;28;20041;-67
2022/12/31 10:43:26;;;;;;;6.00;1.48;;;;;;;14.80;100.00;100514.09;5008792;28;20054;-69
2022/12/31 10:46:21;;;;;;;8.05;1.95;;;;;;;14.73;100.00;100512.72;5009176;28;20123;-68
2022/12/31 10:48:52;;;;;;;4.53;1.42;;;;;;;14.70;100.00;100523.50;5006777;28;20053;-69
2022/12/31 10:51:43;;;;;;;7.97;2.70;;;;;;;14.71;100.00;100546.41;4988664;28;20041;-71
2022/12/31 10:54:46;;;;;;;4.38;1.95;;;;;;;14.63;100.00;100523.84;4955758;28;20038;-70
2022/12/31 10:57:30;;;;;;;3.85;1.55;;;;;;;14.65;100.00;100540.53;5000158;28;20505;-68
2022/12/31 11:00:36;;;;;;;2.38;1.17;;;;;;;14.72;100.00;100540.19;5008141;28;20045;-69
2022/12/31 11:03:10;;;;;;;3.63;1.50;;;;;;;14.71;100.00;100525.19;4929061;29;20024;-69
2022/12/31 11:05:47;;;;;;;3.70;1.45;;;;;;;14.70;100.00;100523.50;5000398;28;20033;-68
2022/12/31 11:08:45;;;;;;;4.90;1.38;;;;;;;14.69;100.00;100522.63;5008837;28;20112;-68
2022/12/31 11:11:13;;;;;;;2.53;1.52;;;;;;;14.66;100.00;100528.13;5009030;28;20836;-68
2022/12/31 11:14:06;;;;;;;7.80;1.85;;;;;;;14.57;100.00;100505.63;5008046;28;20588;-68
2022/12/31 11:16:46;;;;;;;2.50;1.38;;;;;;;14.62;100.00;100519.47;5009000;28;20038;-67
2022/12/31 11:19:30;;;;;;;2.63;1.42;;;;;;;14.69;100.00;100521.78;5008334;28;20382;-69
2022/12/31 11:22:24;;;;;;;4.75;1.08;;;;;;;14.69;100.00;100521.78;4990707;28;20052;-70
2022/12/31 11:25:16;;;;;;;4.80;1.60;;;;;;;14.79;100.00;100538.94;4984257;28;20062;-68
2022/12/31 11:28:08;;;;;;;9.00;1.70;;;;;;;14.90;100.00;100523.25;4970929;28;20036;-68
2022/12/31 11:30:48;;;;;;;4.45;1.67;;;;;;;14.87;100.00;100536.69;5008175;28;20030;-69
2022/12/31 11:33:53;;;;;;;7.07;1.92;;;;;;;14.99;100.00;100513.06;5008829;28;20018;-69
2022/12/31 11:36:24;;;;;;;7.97;2.28;;;;;;;14.96;100.00;100529.16;5004768;28;20052;-68
2022/12/31 11:39:28;;;;;;;7.07;2.25;;;;;;;14.85;100.00;100514.72;5008319;28;20037;-69
2022/12/31 11:42:02;;;;;;;7.18;2.70;;;;;;;14.89;100.00;100513.59;4977539;28;20046;-67
2022/12/31 11:44:36;;;;;;;5.63;2.10;;;;;;;14.87;100.00;100504.00;4990747;28;20032;-68
2022/12/31 11:47:19;;;;;;;8.15;1.77;;;;;;;14.96;100.00;100505.28;5008205;28;20129;-70
2022/12/31 11:49:58;;;;;;;3.72;1.63;;;;;;;14.98;100.00;100493.63;4990860;28;20151;-71
2022/12/31 11:52:45;;;;;;;10.35;2.17;;;;;;;15.03;100.00;100488.88;5007962;28;20029;-69